createdAt,value
2018-04-14T00:00:39.644Z,7.65
2018-04-14T00:03:07.153Z,7.80
2018-04-14T00:05:34.650Z,7.97
2018-04-14T00:08:02.163Z,8.10
2018-04-14T00:10:29.668Z,8.02
2018-04-14T00:12:57.198Z,8.14
2018-04-14T00:15:24.689Z,8.11
2018-04-14T00:17:52.194Z,8.21
2018-04-14T00:20:19.712Z,8.43
2018-04-14T00:22:47.206Z,8.38
2018-04-14T00:25:14.737Z,8.09
2018-04-14T00:27:42.229Z,8.16
2018-04-14T00:30:09.724Z,8.29
2018-04-14T00:32:37.241Z,8.20
2018-04-14T00:35:04.729Z,8.29
2018-04-14T00:37:32.261Z,8.25
2018-04-14T00:39:59.769Z,8.46
2018-04-14T00:42:27.257Z,8.58
2018-04-14T00:44:54.788Z,8.62
2018-04-14T00:47:22.282Z,8.63
2018-04-14T00:49:49.832Z,8.81
2018-04-14T00:52:17.350Z,8.88
2018-04-14T00:54:44.849Z,9.11
2018-04-14T00:57:12.364Z,9.05
2018-04-14T00:59:39.860Z,9.02
2018-04-14T01:02:07.549Z,9.06
2018-04-14T01:04:35.049Z,9.05
2018-04-14T01:07:02.537Z,9.04
2018-04-14T01:09:30.053Z,8.67
2018-04-14T01:11:57.574Z,8.64
2018-04-14T01:14:25.308Z,8.85
2018-04-14T01:16:52.817Z,8.87
2018-04-14T01:19:20.332Z,9.02
2018-04-14T01:21:47.848Z,8.97
2018-04-14T01:24:15.341Z,8.78
2018-04-14T01:26:42.873Z,8.84
2018-04-14T01:29:10.365Z,8.78
2018-04-14T01:31:37.858Z,8.89
2018-04-14T01:34:05.382Z,8.76
2018-04-14T01:36:32.863Z,8.92
2018-04-14T01:39:00.400Z,8.79
2018-04-14T01:41:27.892Z,8.51
2018-04-14T01:43:55.382Z,8.38
2018-04-14T01:46:22.905Z,8.22
2018-04-14T01:48:50.390Z,8.13
2018-04-14T01:51:18.083Z,7.84
2018-04-14T01:53:45.573Z,7.84
2018-04-14T01:56:13.066Z,7.91
2018-04-14T01:58:40.583Z,7.91
2018-04-14T02:01:08.085Z,7.89
2018-04-14T02:03:35.771Z,7.94
2018-04-14T02:06:03.268Z,8.07
2018-04-14T02:08:30.774Z,8.03
2018-04-14T02:10:58.319Z,7.87
2018-04-14T02:13:25.806Z,7.74
2018-04-14T02:15:53.613Z,7.80
2018-04-14T02:18:21.105Z,7.57
2018-04-14T02:20:48.596Z,7.58
2018-04-14T02:23:16.122Z,7.50
2018-04-14T02:25:43.630Z,7.50
2018-04-14T02:28:11.360Z,7.50
2018-04-14T02:30:38.849Z,7.33
2018-04-14T02:33:06.345Z,7.19
2018-04-14T02:35:33.853Z,7.03
2018-04-14T02:38:01.353Z,7.07
2018-04-14T02:40:29.233Z,7.27
2018-04-14T02:42:56.721Z,7.57
2018-04-14T02:45:24.236Z,7.44
2018-04-14T02:47:51.745Z,7.35
2018-04-14T02:50:19.234Z,7.43
2018-04-14T02:52:46.994Z,7.53
2018-04-14T02:55:14.480Z,7.39
2018-04-14T02:57:41.994Z,7.47
2018-04-14T03:00:09.505Z,7.24
2018-04-14T03:02:37.019Z,7.22
2018-04-14T03:05:04.555Z,7.28
2018-04-14T03:07:32.049Z,7.29
2018-04-14T03:09:59.548Z,7.24
2018-04-14T03:12:27.069Z,7.06
2018-04-14T03:14:54.553Z,7.02
2018-04-14T03:17:22.173Z,6.94
2018-04-14T03:19:49.661Z,7.08
2018-04-14T03:22:17.145Z,6.94
2018-04-14T03:24:44.654Z,6.95
2018-04-14T03:27:12.148Z,6.74
2018-04-14T03:29:39.837Z,6.67
2018-04-14T03:32:07.332Z,6.69
2018-04-14T03:34:34.843Z,6.52
2018-04-14T03:37:02.357Z,6.70
2018-04-14T03:39:29.850Z,6.94
2018-04-14T03:41:57.405Z,6.86
2018-04-14T03:44:24.904Z,7.20
2018-04-14T03:46:52.400Z,6.88
2018-04-14T03:49:19.932Z,6.78
2018-04-14T03:51:47.425Z,6.75
2018-04-14T03:54:15.152Z,6.83
2018-04-14T03:56:42.662Z,6.64
2018-04-14T03:59:10.161Z,6.49
2018-04-14T04:01:37.842Z,6.24
2018-04-14T04:04:05.335Z,6.01
2018-04-14T04:06:33.111Z,5.79
2018-04-14T04:09:00.621Z,5.69
2018-04-14T04:11:28.113Z,5.54
2018-04-14T04:13:55.621Z,5.74
2018-04-14T04:16:23.104Z,5.75
2018-04-14T04:19:02.301Z,5.67
2018-04-14T04:21:41.796Z,5.83
2018-04-14T04:24:21.441Z,5.88
2018-04-14T04:26:48.916Z,5.86
2018-04-14T04:29:16.407Z,5.91
2018-04-14T04:31:43.909Z,5.38
2018-04-14T04:34:11.393Z,5.51
2018-04-14T04:36:39.096Z,5.49
2018-04-14T04:39:06.581Z,5.43
2018-04-14T04:41:34.087Z,5.35
2018-04-14T04:44:01.592Z,5.40
2018-04-14T04:46:29.113Z,5.43
2018-04-14T04:48:56.717Z,5.35
2018-04-14T04:51:24.221Z,5.49
2018-04-14T04:53:51.725Z,5.54
2018-04-14T04:56:19.227Z,5.65
2018-04-14T04:58:46.703Z,5.85
2018-04-14T05:01:14.413Z,5.65
2018-04-14T05:03:41.903Z,5.54
2018-04-14T05:06:09.389Z,5.62
2018-04-14T05:08:36.926Z,5.57
2018-04-14T05:11:04.409Z,5.60
2018-04-14T05:13:32.289Z,5.55
2018-04-14T05:15:59.777Z,5.74
2018-04-14T05:18:27.283Z,5.73
2018-04-14T05:20:54.797Z,5.61
2018-04-14T05:23:22.277Z,5.42
2018-04-14T05:25:49.829Z,5.41
2018-04-14T05:28:17.319Z,5.50
2018-04-14T05:30:44.834Z,5.53
2018-04-14T05:33:12.345Z,5.59
2018-04-14T05:35:39.830Z,5.74
2018-04-14T05:38:07.505Z,5.82
2018-04-14T05:40:35.001Z,5.78
2018-04-14T05:43:02.491Z,5.85
2018-04-14T05:45:30.029Z,5.91
2018-04-14T05:47:57.517Z,6.10
2018-04-14T05:50:25.049Z,6.22
2018-04-14T05:52:52.537Z,6.49
2018-04-14T05:55:20.029Z,6.43
2018-04-14T05:57:47.549Z,6.40
2018-04-14T06:00:15.073Z,6.49
2018-04-14T06:02:42.794Z,6.51
2018-04-14T06:05:10.292Z,6.61
2018-04-14T06:07:37.768Z,6.78
2018-04-14T06:10:05.269Z,6.95
2018-04-14T06:12:32.744Z,6.80
2018-04-14T06:15:00.295Z,7.12
2018-04-14T06:17:27.749Z,7.76
2018-04-14T06:19:55.259Z,7.67
2018-04-14T06:22:22.829Z,7.48
2018-04-14T06:24:50.289Z,8.00
2018-04-14T06:27:17.964Z,7.68
2018-04-14T06:29:45.449Z,7.87
2018-04-14T06:32:12.932Z,7.97
2018-04-14T06:34:40.443Z,7.84
2018-04-14T06:37:07.917Z,7.84
2018-04-14T06:39:35.427Z,7.71
2018-04-14T06:42:02.916Z,7.91
2018-04-14T06:44:30.401Z,7.99
2018-04-14T06:46:57.916Z,8.18
2018-04-14T06:49:25.390Z,8.44
2018-04-14T06:51:53.116Z,8.78
2018-04-14T06:54:20.596Z,8.67
2018-04-14T06:56:48.075Z,8.75
2018-04-14T06:59:15.617Z,8.90
2018-04-14T07:01:43.116Z,9.24
2018-04-14T07:04:10.771Z,9.32
2018-04-14T07:06:38.254Z,9.23
2018-04-14T07:09:06.449Z,9.24
2018-04-14T07:11:33.945Z,9.82
2018-04-14T07:14:01.421Z,9.83
2018-04-14T07:16:29.019Z,9.94
2018-04-14T07:18:56.513Z,10.11
2018-04-14T07:21:24.461Z,10.08
2018-04-14T07:23:51.997Z,10.21
2018-04-14T07:26:19.495Z,10.42
2018-04-14T07:28:47.308Z,10.64
2018-04-14T07:31:14.802Z,10.94
2018-04-14T07:33:42.305Z,11.08
2018-04-14T07:36:09.805Z,10.63
2018-04-14T07:38:37.293Z,10.95
2018-04-14T07:41:04.941Z,11.22
2018-04-14T07:43:32.441Z,11.39
2018-04-14T07:45:59.931Z,11.56
2018-04-14T07:48:27.472Z,11.64
2018-04-14T07:50:54.960Z,11.83
2018-04-14T07:53:22.625Z,11.86
2018-04-14T07:55:50.109Z,12.45
2018-04-14T07:58:17.619Z,12.28
2018-04-14T08:00:45.161Z,12.23
2018-04-14T08:03:12.665Z,12.09
2018-04-14T08:05:40.302Z,12.39
2018-04-14T08:08:07.798Z,12.93
2018-04-14T08:10:35.285Z,12.89
2018-04-14T08:13:02.810Z,12.77
2018-04-14T08:15:30.449Z,12.96
2018-04-14T08:17:57.985Z,13.02
2018-04-14T08:20:25.465Z,13.15
2018-04-14T08:22:53.014Z,13.19
2018-04-14T08:25:20.529Z,13.09
2018-04-14T08:27:48.008Z,13.09
2018-04-14T08:30:15.542Z,13.08
2018-04-14T08:32:44.414Z,13.56
2018-04-14T08:35:11.922Z,13.57
2018-04-14T08:37:39.425Z,14.07
2018-04-14T08:40:06.904Z,14.00
2018-04-14T08:42:35.001Z,14.28
2018-04-14T08:45:02.506Z,14.19
2018-04-14T08:47:29.989Z,14.28
2018-04-14T08:49:57.498Z,14.68
2018-04-14T08:52:25.005Z,14.47
2018-04-14T08:54:52.541Z,14.21
2018-04-14T08:57:20.047Z,14.33
2018-04-14T08:59:47.545Z,14.34
2018-04-14T09:02:15.049Z,14.73
2018-04-14T09:04:42.525Z,14.74
2018-04-14T09:07:10.196Z,15.05
2018-04-14T09:09:37.684Z,14.97
2018-04-14T09:12:05.228Z,15.35
2018-04-14T09:14:32.764Z,15.19
2018-04-14T09:17:00.301Z,15.52
2018-04-14T09:19:28.326Z,15.59
2018-04-14T09:21:55.809Z,15.53
2018-04-14T09:24:23.318Z,15.70
2018-04-14T09:26:50.833Z,15.99
2018-04-14T09:29:18.321Z,16.05
2018-04-14T09:31:46.213Z,15.87
2018-04-14T09:34:13.753Z,16.26
2018-04-14T09:36:41.232Z,16.67
2018-04-14T09:39:08.737Z,16.53
2018-04-14T09:41:36.222Z,16.50
2018-04-14T09:44:03.801Z,16.44
2018-04-14T09:46:31.296Z,16.82
2018-04-14T09:48:58.793Z,16.77
2018-04-14T09:51:26.294Z,16.87
2018-04-14T09:53:53.786Z,16.58
2018-04-14T09:56:21.841Z,16.88
2018-04-14T09:58:49.334Z,17.03
2018-04-14T10:01:22.518Z,17.48
2018-04-14T10:03:50.865Z,17.39
2018-04-14T10:06:24.485Z,17.38
2018-04-14T10:08:51.976Z,17.43
2018-04-14T10:11:19.481Z,17.55
2018-04-14T10:13:47.004Z,17.95
2018-04-14T10:16:14.492Z,17.54
2018-04-14T10:18:42.204Z,17.62
2018-04-14T10:21:09.685Z,18.03
2018-04-14T10:23:37.460Z,17.69
2018-04-14T10:26:04.966Z,17.66
2018-04-14T10:28:32.441Z,18.05
2018-04-14T10:30:59.973Z,18.20
2018-04-14T10:33:27.457Z,18.07
2018-04-14T10:35:54.950Z,18.50
2018-04-14T10:38:22.469Z,18.73
2018-04-14T10:40:49.957Z,18.75
2018-04-14T10:43:17.801Z,18.46
2018-04-14T10:45:45.305Z,18.65
2018-04-14T10:48:12.793Z,18.57
2018-04-14T10:50:40.293Z,18.64
2018-04-14T10:53:07.778Z,19.22
2018-04-14T10:55:35.452Z,18.99
2018-04-14T10:58:02.947Z,19.52
2018-04-14T11:00:30.429Z,19.32
2018-04-14T11:02:57.929Z,19.61
2018-04-14T11:05:25.408Z,19.74
2018-04-14T11:07:53.248Z,19.67
2018-04-14T11:10:20.753Z,19.70
2018-04-14T11:12:48.264Z,19.08
2018-04-14T11:15:15.775Z,19.31
2018-04-14T11:17:43.277Z,19.80
2018-04-14T11:20:10.810Z,19.96
2018-04-14T11:22:38.337Z,20.02
2018-04-14T11:25:05.832Z,19.68
2018-04-14T11:27:33.336Z,19.30
2018-04-14T11:30:00.839Z,19.77
2018-04-14T11:32:28.623Z,19.51
2018-04-14T11:34:56.117Z,19.41
2018-04-14T11:37:23.601Z,19.49
2018-04-14T11:39:51.107Z,19.42
2018-04-14T11:42:18.613Z,19.45
2018-04-14T11:44:46.386Z,19.01
2018-04-14T11:47:13.869Z,19.17
2018-04-14T11:49:41.348Z,19.02
2018-04-14T11:52:08.854Z,19.16
2018-04-14T11:54:36.353Z,19.30
2018-04-14T11:57:04.037Z,19.30
2018-04-14T11:59:31.534Z,19.38
2018-04-14T12:01:59.033Z,19.18
2018-04-14T12:04:26.537Z,19.60
2018-04-14T12:06:54.045Z,19.99
2018-04-14T12:09:21.808Z,20.02
2018-04-14T12:11:49.289Z,19.70
2018-04-14T12:14:16.765Z,19.73
2018-04-14T12:16:44.292Z,20.06
2018-04-14T12:19:11.780Z,19.82
2018-04-14T12:21:39.329Z,19.48
2018-04-14T12:24:06.841Z,19.44
2018-04-14T12:26:34.324Z,19.43
2018-04-14T12:29:01.837Z,19.35
2018-04-14T12:31:29.333Z,19.32
2018-04-14T12:33:57.007Z,19.37
2018-04-14T12:36:24.513Z,19.26
2018-04-14T12:38:52.001Z,19.29
2018-04-14T12:41:19.529Z,19.60
2018-04-14T12:43:47.021Z,19.65
2018-04-14T12:46:14.768Z,19.84
2018-04-14T12:48:42.245Z,19.53
2018-04-14T12:51:09.725Z,19.60
2018-04-14T12:53:37.240Z,19.75
2018-04-14T12:56:04.721Z,19.95
2018-04-14T12:58:32.241Z,20.09
2018-04-14T13:00:59.721Z,20.07
2018-04-14T13:03:27.207Z,20.14
2018-04-14T13:05:54.719Z,20.26
2018-04-14T13:08:22.201Z,20.34
2018-04-14T13:10:49.865Z,20.45
2018-04-14T13:13:17.351Z,20.38
2018-04-14T13:15:44.849Z,20.47
2018-04-14T13:18:12.350Z,20.77
2018-04-14T13:20:39.831Z,21.17
2018-04-14T13:23:07.625Z,21.74
2018-04-14T13:25:35.104Z,21.72
2018-04-14T13:28:02.588Z,21.77
2018-04-14T13:30:30.093Z,21.83
2018-04-14T13:32:57.590Z,21.40
2018-04-14T13:35:25.280Z,21.53
2018-04-14T13:37:52.774Z,21.60
2018-04-14T13:40:20.261Z,21.75
2018-04-14T13:42:47.769Z,21.66
2018-04-14T13:45:15.250Z,21.77
2018-04-14T13:47:42.852Z,21.95
2018-04-14T13:50:10.341Z,21.94
2018-04-14T13:52:37.825Z,21.94
2018-04-14T13:55:05.329Z,21.90
2018-04-14T13:57:32.835Z,22.19
2018-04-14T14:00:00.365Z,22.25
2018-04-14T14:02:27.852Z,21.98
2018-04-14T14:04:55.331Z,21.81
2018-04-14T14:07:22.837Z,22.07
2018-04-14T14:09:50.333Z,21.66
2018-04-14T14:12:17.866Z,21.79
2018-04-14T14:14:45.418Z,21.68
2018-04-14T14:17:12.898Z,21.27
2018-04-14T14:19:40.400Z,21.39
2018-04-14T14:22:07.930Z,21.55
2018-04-14T14:24:35.418Z,21.57
2018-04-14T14:27:02.932Z,21.52
2018-04-14T14:29:30.429Z,21.74
2018-04-14T14:31:57.918Z,22.09
2018-04-14T14:34:25.438Z,21.90
2018-04-14T14:36:52.937Z,22.13
2018-04-14T14:39:20.436Z,22.15
2018-04-14T14:41:47.969Z,21.94
2018-04-14T14:44:15.454Z,22.14
2018-04-14T14:46:42.949Z,21.89
2018-04-14T14:49:10.481Z,21.75
2018-04-14T14:54:11.814Z,22.25
2018-04-14T14:56:39.317Z,21.94
2018-04-14T14:59:06.850Z,21.85
2018-04-14T15:01:34.349Z,22.09
2018-04-14T15:04:01.841Z,21.85
2018-04-14T15:06:29.354Z,21.81
2018-04-14T15:08:56.856Z,21.52
2018-04-14T15:11:24.363Z,21.48
2018-04-14T15:13:51.929Z,21.52
2018-04-14T15:16:19.504Z,21.42
2018-04-14T15:18:46.994Z,21.37
2018-04-14T15:21:14.505Z,21.25
2018-04-14T15:23:41.989Z,21.11
2018-04-14T15:26:09.486Z,21.15
2018-04-14T15:28:37.181Z,21.19
2018-04-14T15:31:04.657Z,21.09
2018-04-14T15:33:32.145Z,21.12
2018-04-14T15:35:59.890Z,21.06
2018-04-14T15:38:27.402Z,21.12
2018-04-14T15:40:54.887Z,20.99
2018-04-14T15:43:22.631Z,21.18
2018-04-14T15:45:50.125Z,21.24
2018-04-14T15:48:17.628Z,20.98
2018-04-14T15:50:45.332Z,20.91
2018-04-14T15:53:12.825Z,20.84
2018-04-14T15:55:41.246Z,20.87
2018-04-14T15:58:09.230Z,20.72
2018-04-14T16:00:36.681Z,20.76
2018-04-14T16:03:04.161Z,20.97
2018-04-14T16:05:31.681Z,20.74
2018-04-14T16:07:59.199Z,20.47
2018-04-14T16:10:26.694Z,20.72
2018-04-14T16:12:54.822Z,20.62
2018-04-14T16:15:22.306Z,20.52
2018-04-14T16:17:49.812Z,20.63
2018-04-14T16:20:17.549Z,20.64
2018-04-14T16:22:45.037Z,20.33
2018-04-14T16:25:12.547Z,20.55
2018-04-14T16:27:40.068Z,20.48
2018-04-14T16:30:07.561Z,20.56
2018-04-14T16:32:35.300Z,20.45
2018-04-14T16:35:02.821Z,20.48
2018-04-14T16:37:30.297Z,20.51
2018-04-14T16:39:58.060Z,20.40
2018-04-14T16:42:25.587Z,20.31
2018-04-14T16:44:53.077Z,20.31
2018-04-14T16:47:20.560Z,20.30
2018-04-14T16:49:48.108Z,20.26
2018-04-14T16:52:15.623Z,20.13
2018-04-14T16:54:43.109Z,20.22
2018-04-14T16:57:10.640Z,19.99
2018-04-14T16:59:38.141Z,20.02
2018-04-14T17:02:05.632Z,20.04
2018-04-14T17:04:33.413Z,20.02
2018-04-14T17:07:00.900Z,20.05
2018-04-14T17:09:28.393Z,19.83
2018-04-14T17:11:56.061Z,19.78
2018-04-14T17:14:23.547Z,19.74
2018-04-14T17:16:51.032Z,19.65
2018-04-14T17:19:18.571Z,19.81
2018-04-14T17:21:46.065Z,19.57
2018-04-14T17:24:13.567Z,19.43
2018-04-14T17:26:41.461Z,19.28
2018-04-14T17:29:08.946Z,19.36
2018-04-14T17:31:36.456Z,19.20
2018-04-14T17:34:03.990Z,19.02
2018-04-14T17:36:31.482Z,19.01
2018-04-14T17:38:58.977Z,19.00
2018-04-14T17:41:26.697Z,18.98
2018-04-14T17:43:54.193Z,18.94
2018-04-14T17:46:21.673Z,18.83
2018-04-14T17:48:49.225Z,18.70
2018-04-14T17:51:16.715Z,18.55
2018-04-14T17:53:44.223Z,18.48
2018-04-14T17:56:11.926Z,18.39
2018-04-14T17:58:39.421Z,18.40
2018-04-14T18:01:06.923Z,18.25
2018-04-14T18:03:34.478Z,18.05
2018-04-14T18:06:02.021Z,17.93
2018-04-14T18:08:29.517Z,17.91
2018-04-14T18:10:57.055Z,18.04
2018-04-14T18:13:24.544Z,17.87
2018-04-14T18:15:52.095Z,17.69
2018-04-14T18:18:19.881Z,17.66
2018-04-14T18:20:47.385Z,17.77
2018-04-14T18:23:14.880Z,17.58
2018-04-14T18:25:42.555Z,17.49
2018-04-14T18:28:10.096Z,17.48
2018-04-14T18:30:37.614Z,17.03
2018-04-14T18:33:05.169Z,17.01
2018-04-14T18:35:34.360Z,16.80
2018-04-14T18:38:02.297Z,16.62
2018-04-14T18:40:29.854Z,16.33
2018-04-14T18:42:57.378Z,16.18
2018-04-14T18:45:27.245Z,16.13
2018-04-14T18:47:54.819Z,15.86
2018-04-14T18:50:22.598Z,15.71
2018-04-14T18:52:50.115Z,15.64
2018-04-14T18:55:17.635Z,15.68
2018-04-14T18:57:47.770Z,15.67
2018-04-14T19:00:15.330Z,15.41
2018-04-14T19:02:42.821Z,15.19
2018-04-14T19:05:11.698Z,15.17
2018-04-14T19:07:41.108Z,15.19
2018-04-14T19:10:10.060Z,14.96
2018-04-14T19:12:39.684Z,15.15
2018-04-14T19:15:07.434Z,15.07
2018-04-14T19:17:35.287Z,14.97
2018-04-14T19:20:03.172Z,14.98
2018-04-14T19:22:30.998Z,15.07
2018-04-14T19:24:58.668Z,15.13
2018-04-14T19:27:26.206Z,15.14
2018-04-14T19:29:54.641Z,15.27
2018-04-14T19:32:22.207Z,15.15
2018-04-14T19:34:50.398Z,14.89
2018-04-14T19:37:19.027Z,14.82
2018-04-14T19:39:46.533Z,14.73
2018-04-14T19:42:15.547Z,14.96
2018-04-14T19:44:43.044Z,15.03
2018-04-14T19:47:10.916Z,15.12
2018-04-14T19:49:38.435Z,14.89
2018-04-14T19:52:05.936Z,14.89
2018-04-14T19:54:34.143Z,14.94
2018-04-14T19:57:01.644Z,14.87
2018-04-14T19:59:30.013Z,14.88
2018-04-14T20:01:58.294Z,14.84
2018-04-14T20:04:25.814Z,14.95
2018-04-14T20:06:53.739Z,15.01
2018-04-14T20:09:21.246Z,14.55
2018-04-14T20:11:48.977Z,14.24
2018-04-14T20:14:16.559Z,13.94
2018-04-14T20:16:44.063Z,14.00
2018-04-14T20:19:11.612Z,13.88
2018-04-14T20:21:39.159Z,14.09
2018-04-14T20:24:06.911Z,14.08
2018-04-14T20:26:34.404Z,14.25
2018-04-14T20:29:02.422Z,14.33
2018-04-14T20:31:29.945Z,14.04
2018-04-14T20:33:57.448Z,14.03
2018-04-14T20:36:24.989Z,13.81
2018-04-14T20:38:52.498Z,14.02
2018-04-14T20:41:20.030Z,14.07
2018-04-14T20:43:47.562Z,14.13
2018-04-14T20:46:15.056Z,14.00
2018-04-14T20:48:42.588Z,14.00
2018-04-14T20:51:10.126Z,14.07
2018-04-14T20:53:37.644Z,13.91
2018-04-14T20:56:05.172Z,13.83
2018-04-14T20:58:32.664Z,13.65
2018-04-14T21:01:00.162Z,13.50
2018-04-14T21:03:27.681Z,13.61
2018-04-14T21:05:56.295Z,13.54
2018-04-14T21:08:23.834Z,13.48
2018-04-14T21:10:51.353Z,13.75
2018-04-14T21:13:18.901Z,13.64
2018-04-14T21:15:46.421Z,13.33
2018-04-14T21:18:13.925Z,13.38
2018-04-14T21:20:41.421Z,13.19
2018-04-14T21:23:08.956Z,13.42
2018-04-14T21:25:36.452Z,13.30
2018-04-14T21:28:03.950Z,13.35
2018-04-14T21:30:31.710Z,13.36
2018-04-14T21:32:59.190Z,13.32
2018-04-14T21:35:26.842Z,13.23
2018-04-14T21:37:54.508Z,13.35
2018-04-14T21:40:22.010Z,13.12
2018-04-14T21:42:49.494Z,13.25
2018-04-14T21:45:17.222Z,13.28
2018-04-14T21:47:44.700Z,13.31
2018-04-14T21:50:12.193Z,13.20
2018-04-14T21:52:39.881Z,13.23
2018-04-14T21:55:07.361Z,13.07
2018-04-14T21:57:34.849Z,13.01
2018-04-14T22:00:02.417Z,12.90
2018-04-14T22:02:29.962Z,13.04
2018-04-14T22:04:57.453Z,12.89
2018-04-14T22:07:25.166Z,12.62
2018-04-14T22:09:52.661Z,12.48
2018-04-14T22:12:20.149Z,12.79
2018-04-14T22:14:47.877Z,12.87
2018-04-14T22:17:15.371Z,12.96
2018-04-14T22:19:42.865Z,13.00
2018-04-14T22:22:10.380Z,13.06
2018-04-14T22:24:37.869Z,13.08
2018-04-14T22:27:05.349Z,12.81
2018-04-14T22:29:33.015Z,12.82
2018-04-14T22:32:00.494Z,12.83
2018-04-14T22:34:27.972Z,12.85
2018-04-14T22:36:55.748Z,12.68
2018-04-14T22:39:23.233Z,12.38
2018-04-14T22:41:50.713Z,12.54
2018-04-14T22:44:18.441Z,12.40
2018-04-14T22:46:45.926Z,12.53
2018-04-14T22:49:13.409Z,12.52
2018-04-14T22:51:40.921Z,12.49
2018-04-14T22:54:08.404Z,12.26
2018-04-14T22:56:36.295Z,12.22
2018-04-14T22:59:03.804Z,12.29
2018-04-14T23:01:31.297Z,12.42
2018-04-14T23:03:58.804Z,12.46
2018-04-14T23:06:26.305Z,12.52
2018-04-14T23:08:53.952Z,12.50
2018-04-14T23:11:21.435Z,12.58
2018-04-14T23:13:48.967Z,12.52
2018-04-14T23:16:16.454Z,12.62
2018-04-14T23:18:43.936Z,12.67
2018-04-14T23:21:11.605Z,12.43
2018-04-14T23:23:39.105Z,12.36
2018-04-14T23:26:06.585Z,12.18
2018-04-14T23:28:34.094Z,12.40
2018-04-14T23:31:01.580Z,12.27
2018-04-14T23:33:29.362Z,12.44
2018-04-14T23:35:57.005Z,12.54
2018-04-14T23:38:24.509Z,12.56
2018-04-14T23:40:52.021Z,12.52
2018-04-14T23:43:19.500Z,12.66
2018-04-14T23:48:15.420Z,12.60
2018-04-14T23:50:42.901Z,12.46
2018-04-14T23:53:10.410Z,12.50
2018-04-14T23:55:37.897Z,12.54
2018-04-14T23:58:05.593Z,12.68
